Airfield :
LOGIN :

Register | Disclaimer

   EN    FR    IT 

 










Legend :    VFR   Marginal VFR   IFR   Intensive IFR   Very Intensive IFR
Visi :
Ceiling :
>= 8 km
>= 3000ft
5 to 8 km
1000 to 3000 ft
1500m to 5 km
500 to 1000 ft
800 to 1500m
200 to 500 ft
< 800m
< 200 ft
Symbols :   Thunderstorms  Fog  Heavy snow  Heavy precipitations  Wind > 20 kt
SIGMETs :     Misc.  Thunderstorms  Icing  Turbulence  Mountain Waves  Volcanic Ashes







- Airport Elevation : 26 ft
- IATA code : GLA
- Download approach charts


EGPF - Glasgow

CURRENT METAR :
  • 262350Z AUTO 07008KT 9999 FEW041 13/10 Q1012

EXPIRED METARs :
  • 262320Z AUTO 07009KT 9999 NCD 13/10 Q1012
  • 262250Z AUTO 07008KT 9999 NCD 13/10 Q1012
  • 262220Z AUTO 07008KT 9999 NCD 13/10 Q1012
  • 262150Z AUTO 07006KT 9999 NCD 13/09 Q1012
  • 262120Z AUTO 05004KT 9999 NCD 13/09 Q1012

TAF TAF EGPF
Valid from the 27 at 00:00 until the 28 at 00:00 UTC


262303Z 2700/2724 09008KT 9999 FEW018 SCT035
TEMPO 2700/2712 6000 RA BKN014
PROB40
TEMPO 2700/2709 3000 +RA BKN008
TEMPO 2712/2724 7000 -RA BKN012
PROB30
TEMPO 2719/2724 4000 +SHRA BKN007
ATIS : +44 141 887 7449
No reported NOTAMs for that airfield.



MET'MAP, your aeronautical weather chart ! - Copyright ORBIFLY December 2007 - Disclaimer

ORBIFLY MET'MAP TEAM :

Programming & Development : Alexandra Zaïnal
Concept & Development : Baudouin d'Aumeries
Co-Development & Prog : Marc-Olivier Méhu
Technical & hardware support : Manuel Goepfert

Contact : metmap@orbifly.com




SOURCES & CREDITS :

   NOAA